London, United Kingdom

1:33 PM BST on September 21, 2014 (GMT +0100)
Heathrow | Change Station
CLOSE
Current Station
Airport
Location: London,
Elevation: 79 ft
Nearby Weather Stations

Elev 79 ft 51.48 °N, 0.46 °W | Updated 13 minutes ago

Scattered Clouds
Scattered Clouds
64 °F
Feels Like 64 °F
N
8
Wind Variable Wind from North

Today
High -- | Low -- °F
--% Chance of Precip.
Yesterday
High -- | Low -- °F
Precip. -- in
6:46 AM 7:02 PM
Waning Crescent, 7% visible
Pressure 30.24 in
Visibility 6.2 miles
Clouds Scattered Clouds 3900 ft
Dew Point 46 °F
Humidity 52%
Rainfall 0.00 in
Snow Depth Not available.
UV 4 out of 12
Pollen Not available.
Air Quality Not available.
Flu Activity Not available.
METAR EGLL 211220Z 36007KT 310V040 9999 SCT039 18/08 Q1024 NOSIG

More Conditions Fewer Conditions

Pressure 30.24 in
Visibility 6.2 miles
Clouds Scattered Clouds 3900 ft
Dew Point 46 °F
Humidity 52%
Rainfall 0.00 in
Snow Depth Not available.
UV 4 out of 12
Pollen Not available.
Air Quality Not available.
Flu Activity Not available.
METAR EGLL 211220Z 36007KT 310V040 9999 SCT039 18/08 Q1024 NOSIG

More Conditions Fewer Conditions

10-Day Weather Forecast

Almanac

Astronomy

Sep. 21, 2014 Rise Set
Actual Time 6:46 AM BST 7:02 PM BST
Civil Twilight 6:12 AM BST 7:36 PM BST
Nautical Twilight 5:33 AM BST 8:15 PM BST
Astronomical Twilight 4:51 AM BST 8:56 PM BST
Moon 3:51 AM BST 5:42 PM BST
Length of Visible Light 13h 23m
Length of Day
12h 16m
Tomorrow will be 3m 55s shorter.
Waning Crescent, 7% of the Moon is Illuminated
Today
Waning Crescent
Sep 24
New
Oct 1
First Quarter
Oct 8
Full
Oct 15
Last Quarter

Yesterday's Extremes

Country Highs Country Lows

Community

WunderPhotos

Upload Photos

1,755,127 photos uploaded!

Nearby

Snow Depth

Not available.

Earthquake Activity

City Distance Mag. Time & Date
No recent earthquake activity has been reported nearby.
Minimum magnitude displayed is 2.5.

Coastal Water Temperatures

Place Temperature
No Stations Reporting

Nearby Weather Stations